sensor_id;sensor_type;location;lat;lon;timestamp;temperature;humidity
37222;DHT22;23119;51.842;-2.230;2022-12-07T00:01:46;3.30;99.90
37222;DHT22;23119;51.842;-2.230;2022-12-07T00:04:14;3.30;99.90
37222;DHT22;23119;51.842;-2.230;2022-12-07T00:06:42;3.30;99.90
37222;DHT22;23119;51.842;-2.230;2022-12-07T00:09:13;3.40;99.90
37222;DHT22;23119;51.842;-2.230;2022-12-07T00:11:39;3.40;99.90
37222;DHT22;23119;51.842;-2.230;2022-12-07T00:14:09;3.40;99.90
37222;DHT22;23119;51.842;-2.230;2022-12-07T00:16:35;3.40;99.90
37222;DHT22;23119;51.842;-2.230;2022-12-07T00:19:02;3.50;99.90
37222;DHT22;23119;51.842;-2.230;2022-12-07T00:21:31;3.50;99.90
37222;DHT22;23119;51.842;-2.230;2022-12-07T00:24:01;3.60;99.90
37222;DHT22;23119;51.842;-2.230;2022-12-07T00:26:34;3.70;99.90
37222;DHT22;23119;51.842;-2.230;2022-12-07T00:29:09;3.70;99.90
37222;DHT22;23119;51.842;-2.230;2022-12-07T00:31:37;3.80;99.90
37222;DHT22;23119;51.842;-2.230;2022-12-07T00:34:07;3.80;99.90
37222;DHT22;23119;51.842;-2.230;2022-12-07T00:36:33;3.90;99.90
37222;DHT22;23119;51.842;-2.230;2022-12-07T00:38:59;3.80;99.90
37222;DHT22;23119;51.842;-2.230;2022-12-07T00:41:27;3.90;99.90
37222;DHT22;23119;51.842;-2.230;2022-12-07T00:43:53;3.80;99.90
37222;DHT22;23119;51.842;-2.230;2022-12-07T00:46:20;3.80;99.90
37222;DHT22;23119;51.842;-2.230;2022-12-07T00:48:47;3.80;99.90
37222;DHT22;23119;51.842;-2.230;2022-12-07T00:51:14;3.80;99.90
37222;DHT22;23119;51.842;-2.230;2022-12-07T00:53:40;3.80;99.90
37222;DHT22;23119;51.842;-2.230;2022-12-07T00:56:12;3.80;99.90
37222;DHT22;23119;51.842;-2.230;2022-12-07T00:58:38;3.70;99.90
37222;DHT22;23119;51.842;-2.230;2022-12-07T01:01:08;3.70;99.90
37222;DHT22;23119;51.842;-2.230;2022-12-07T01:03:36;3.70;99.90
37222;DHT22;23119;51.842;-2.230;2022-12-07T01:06:05;3.70;99.90
37222;DHT22;23119;51.842;-2.230;2022-12-07T01:08:33;3.70;99.90
37222;DHT22;23119;51.842;-2.230;2022-12-07T01:11:05;3.80;99.90
37222;DHT22;23119;51.842;-2.230;2022-12-07T01:13:32;3.80;99.90
37222;DHT22;23119;51.842;-2.230;2022-12-07T01:15:59;3.80;99.90
37222;DHT22;23119;51.842;-2.230;2022-12-07T01:18:27;3.80;99.90
37222;DHT22;23119;51.842;-2.230;2022-12-07T01:21:08;3.80;99.90
37222;DHT22;23119;51.842;-2.230;2022-12-07T01:23:35;3.80;99.90
37222;DHT22;23119;51.842;-2.230;2022-12-07T01:26:03;3.80;99.90
37222;DHT22;23119;51.842;-2.230;2022-12-07T01:28:36;3.80;99.90
37222;DHT22;23119;51.842;-2.230;2022-12-07T01:31:05;3.80;99.90
37222;DHT22;23119;51.842;-2.230;2022-12-07T01:33:34;3.80;99.90
37222;DHT22;23119;51.842;-2.230;2022-12-07T01:36:14;3.80;99.90
37222;DHT22;23119;51.842;-2.230;2022-12-07T01:38:40;3.80;99.90
37222;DHT22;23119;51.842;-2.230;2022-12-07T01:41:06;3.80;99.90
37222;DHT22;23119;51.842;-2.230;2022-12-07T01:43:33;3.80;99.90
37222;DHT22;23119;51.842;-2.230;2022-12-07T01:46:00;3.80;99.90
37222;DHT22;23119;51.842;-2.230;2022-12-07T01:48:31;3.80;99.90
37222;DHT22;23119;51.842;-2.230;2022-12-07T01:51:02;3.80;99.90
37222;DHT22;23119;51.842;-2.230;2022-12-07T01:53:29;3.70;99.90
37222;DHT22;23119;51.842;-2.230;2022-12-07T01:55:56;3.70;99.90
37222;DHT22;23119;51.842;-2.230;2022-12-07T01:58:23;3.70;99.90
37222;DHT22;23119;51.842;-2.230;2022-12-07T02:00:49;3.70;99.90
37222;DHT22;23119;51.842;-2.230;2022-12-07T02:03:25;3.60;99.90
37222;DHT22;23119;51.842;-2.230;2022-12-07T02:05:53;3.60;99.90
37222;DHT22;23119;51.842;-2.230;2022-12-07T02:08:20;3.50;99.90
37222;DHT22;23119;51.842;-2.230;2022-12-07T02:10:46;3.60;99.90
37222;DHT22;23119;51.842;-2.230;2022-12-07T02:13:18;3.50;99.90
37222;DHT22;23119;51.842;-2.230;2022-12-07T02:18:25;3.40;99.90
37222;DHT22;23119;51.842;-2.230;2022-12-07T02:24:11;3.40;99.90
37222;DHT22;23119;51.842;-2.230;2022-12-07T02:35:19;3.30;99.90
37222;DHT22;23119;51.842;-2.230;2022-12-07T02:38:25;3.40;99.90
37222;DHT22;23119;51.842;-2.230;2022-12-07T02:41:04;3.30;99.90
37222;DHT22;23119;51.842;-2.230;2022-12-07T02:44:00;3.30;99.90
37222;DHT22;23119;51.842;-2.230;2022-12-07T02:46:33;3.40;99.90
37222;DHT22;23119;51.842;-2.230;2022-12-07T02:49:04;3.30;99.90
37222;DHT22;23119;51.842;-2.230;2022-12-07T02:51:33;3.30;99.90
37222;DHT22;23119;51.842;-2.230;2022-12-07T02:54:00;3.30;99.90
37222;DHT22;23119;51.842;-2.230;2022-12-07T03:10:22;3.40;99.90
37222;DHT22;23119;51.842;-2.230;2022-12-07T03:13:09;3.40;99.90
37222;DHT22;23119;51.842;-2.230;2022-12-07T03:15:51;3.50;99.90
37222;DHT22;23119;51.842;-2.230;2022-12-07T03:18:22;3.40;99.90
37222;DHT22;23119;51.842;-2.230;2022-12-07T03:20:51;3.40;99.90
37222;DHT22;23119;51.842;-2.230;2022-12-07T03:23:19;3.50;99.90
37222;DHT22;23119;51.842;-2.230;2022-12-07T03:25:49;3.50;99.90
37222;DHT22;23119;51.842;-2.230;2022-12-07T03:28:22;3.40;99.90
37222;DHT22;23119;51.842;-2.230;2022-12-07T03:39:34;3.40;99.90
37222;DHT22;23119;51.842;-2.230;2022-12-07T03:42:03;3.40;99.90
37222;DHT22;23119;51.842;-2.230;2022-12-07T03:44:29;3.30;99.90
37222;DHT22;23119;51.842;-2.230;2022-12-07T03:49:48;3.40;99.90
37222;DHT22;23119;51.842;-2.230;2022-12-07T03:54:44;3.30;99.90
37222;DHT22;23119;51.842;-2.230;2022-12-07T03:57:13;3.30;99.90
37222;DHT22;23119;51.842;-2.230;2022-12-07T03:59:40;3.30;99.90
37222;DHT22;23119;51.842;-2.230;2022-12-07T04:02:07;3.40;99.90
37222;DHT22;23119;51.842;-2.230;2022-12-07T04:04:37;3.40;99.90
37222;DHT22;23119;51.842;-2.230;2022-12-07T04:07:02;3.40;99.90
37222;DHT22;23119;51.842;-2.230;2022-12-07T04:09:28;3.40;99.90
37222;DHT22;23119;51.842;-2.230;2022-12-07T04:11:54;3.40;99.90
37222;DHT22;23119;51.842;-2.230;2022-12-07T04:14:19;3.40;99.90
37222;DHT22;23119;51.842;-2.230;2022-12-07T04:16:49;3.40;99.90
37222;DHT22;23119;51.842;-2.230;2022-12-07T04:19:16;3.40;99.90
37222;DHT22;23119;51.842;-2.230;2022-12-07T04:21:45;3.30;99.90
37222;DHT22;23119;51.842;-2.230;2022-12-07T04:24:12;3.30;99.90
37222;DHT22;23119;51.842;-2.230;2022-12-07T04:26:38;3.30;99.90
37222;DHT22;23119;51.842;-2.230;2022-12-07T04:29:04;3.30;99.90
37222;DHT22;23119;51.842;-2.230;2022-12-07T04:31:30;3.30;99.90
37222;DHT22;23119;51.842;-2.230;2022-12-07T04:33:56;3.20;99.90
37222;DHT22;23119;51.842;-2.230;2022-12-07T04:36:21;3.20;99.90
37222;DHT22;23119;51.842;-2.230;2022-12-07T04:38:50;3.10;99.90
37222;DHT22;23119;51.842;-2.230;2022-12-07T04:41:18;3.10;99.90
37222;DHT22;23119;51.842;-2.230;2022-12-07T04:43:43;3.00;99.90
37222;DHT22;23119;51.842;-2.230;2022-12-07T04:46:09;2.90;99.90
37222;DHT22;23119;51.842;-2.230;2022-12-07T04:48:35;2.90;99.90
37222;DHT22;23119;51.842;-2.230;2022-12-07T04:51:02;2.80;99.90
37222;DHT22;23119;51.842;-2.230;2022-12-07T04:53:29;2.70;99.90
37222;DHT22;23119;51.842;-2.230;2022-12-07T04:55:54;2.70;99.90
37222;DHT22;23119;51.842;-2.230;2022-12-07T04:58:20;2.70;99.90
37222;DHT22;23119;51.842;-2.230;2022-12-07T05:00:46;2.60;99.90
37222;DHT22;23119;51.842;-2.230;2022-12-07T05:03:14;2.60;99.90
37222;DHT22;23119;51.842;-2.230;2022-12-07T05:05:42;2.50;99.90
37222;DHT22;23119;51.842;-2.230;2022-12-07T05:08:08;2.50;99.90
37222;DHT22;23119;51.842;-2.230;2022-12-07T05:10:33;2.40;99.90
37222;DHT22;23119;51.842;-2.230;2022-12-07T05:12:59;2.40;99.90
37222;DHT22;23119;51.842;-2.230;2022-12-07T05:15:25;2.30;99.90
37222;DHT22;23119;51.842;-2.230;2022-12-07T05:17:50;2.30;99.90
37222;DHT22;23119;51.842;-2.230;2022-12-07T05:20:17;2.30;99.90
37222;DHT22;23119;51.842;-2.230;2022-12-07T05:22:43;2.20;99.90
37222;DHT22;23119;51.842;-2.230;2022-12-07T05:25:09;2.20;99.90
37222;DHT22;23119;51.842;-2.230;2022-12-07T05:27:34;2.10;99.90
37222;DHT22;23119;51.842;-2.230;2022-12-07T05:30:00;2.10;99.90
37222;DHT22;23119;51.842;-2.230;2022-12-07T05:32:26;2.00;99.90
37222;DHT22;23119;51.842;-2.230;2022-12-07T05:34:51;2.00;99.90
37222;DHT22;23119;51.842;-2.230;2022-12-07T05:37:20;2.00;99.90
37222;DHT22;23119;51.842;-2.230;2022-12-07T05:39:45;1.90;99.90
37222;DHT22;23119;51.842;-2.230;2022-12-07T05:42:13;1.90;99.90
37222;DHT22;23119;51.842;-2.230;2022-12-07T05:44:44;1.90;99.90
37222;DHT22;23119;51.842;-2.230;2022-12-07T05:47:11;1.90;99.90
37222;DHT22;23119;51.842;-2.230;2022-12-07T05:49:37;1.80;99.90
37222;DHT22;23119;51.842;-2.230;2022-12-07T05:52:03;1.80;99.90
37222;DHT22;23119;51.842;-2.230;2022-12-07T05:54:28;1.70;99.90
37222;DHT22;23119;51.842;-2.230;2022-12-07T05:56:54;1.70;99.90
37222;DHT22;23119;51.842;-2.230;2022-12-07T05:59:20;1.70;99.90
37222;DHT22;23119;51.842;-2.230;2022-12-07T06:02:00;1.70;99.90
37222;DHT22;23119;51.842;-2.230;2022-12-07T06:04:30;1.70;99.90
37222;DHT22;23119;51.842;-2.230;2022-12-07T06:06:59;1.60;99.90
37222;DHT22;23119;51.842;-2.230;2022-12-07T06:09:26;1.60;99.90
37222;DHT22;23119;51.842;-2.230;2022-12-07T06:11:56;1.60;99.90
37222;DHT22;23119;51.842;-2.230;2022-12-07T06:14:40;1.60;99.90
37222;DHT22;23119;51.842;-2.230;2022-12-07T06:17:06;1.60;99.90
37222;DHT22;23119;51.842;-2.230;2022-12-07T06:19:32;1.50;99.90
37222;DHT22;23119;51.842;-2.230;2022-12-07T06:21:58;1.50;99.90
37222;DHT22;23119;51.842;-2.230;2022-12-07T06:24:24;1.50;99.90
37222;DHT22;23119;51.842;-2.230;2022-12-07T06:26:50;1.50;99.90
37222;DHT22;23119;51.842;-2.230;2022-12-07T06:29:17;1.50;99.90
37222;DHT22;23119;51.842;-2.230;2022-12-07T06:31:42;1.50;99.90
37222;DHT22;23119;51.842;-2.230;2022-12-07T06:34:14;1.50;99.90
37222;DHT22;23119;51.842;-2.230;2022-12-07T06:37:02;1.40;99.90
37222;DHT22;23119;51.842;-2.230;2022-12-07T06:39:29;1.50;99.90
37222;DHT22;23119;51.842;-2.230;2022-12-07T06:41:55;1.50;99.90
37222;DHT22;23119;51.842;-2.230;2022-12-07T06:44:22;1.40;99.90
37222;DHT22;23119;51.842;-2.230;2022-12-07T06:46:51;1.50;99.90
37222;DHT22;23119;51.842;-2.230;2022-12-07T06:49:17;1.50;99.90
37222;DHT22;23119;51.842;-2.230;2022-12-07T06:51:43;1.50;99.90
37222;DHT22;23119;51.842;-2.230;2022-12-07T06:54:11;1.40;99.90
37222;DHT22;23119;51.842;-2.230;2022-12-07T06:56:37;1.40;99.90
37222;DHT22;23119;51.842;-2.230;2022-12-07T06:59:05;1.40;99.90
37222;DHT22;23119;51.842;-2.230;2022-12-07T07:01:32;1.40;99.90
37222;DHT22;23119;51.842;-2.230;2022-12-07T07:04:01;1.40;99.90
37222;DHT22;23119;51.842;-2.230;2022-12-07T07:06:32;1.40;99.90
37222;DHT22;23119;51.842;-2.230;2022-12-07T07:08:58;1.40;99.90
37222;DHT22;23119;51.842;-2.230;2022-12-07T07:11:24;1.50;99.90
37222;DHT22;23119;51.842;-2.230;2022-12-07T07:13:49;1.50;99.90
37222;DHT22;23119;51.842;-2.230;2022-12-07T07:16:18;1.50;99.90
37222;DHT22;23119;51.842;-2.230;2022-12-07T07:18:43;1.50;99.90
37222;DHT22;23119;51.842;-2.230;2022-12-07T07:21:09;1.60;99.90
37222;DHT22;23119;51.842;-2.230;2022-12-07T07:23:37;1.60;99.90
37222;DHT22;23119;51.842;-2.230;2022-12-07T07:26:03;1.70;99.90
37222;DHT22;23119;51.842;-2.230;2022-12-07T07:28:31;1.70;99.90
37222;DHT22;23119;51.842;-2.230;2022-12-07T07:30:57;1.80;99.90
37222;DHT22;23119;51.842;-2.230;2022-12-07T07:33:25;1.90;99.90
37222;DHT22;23119;51.842;-2.230;2022-12-07T07:35:56;1.90;99.90
37222;DHT22;23119;51.842;-2.230;2022-12-07T07:38:22;2.00;99.90
37222;DHT22;23119;51.842;-2.230;2022-12-07T07:40:51;2.00;99.90
37222;DHT22;23119;51.842;-2.230;2022-12-07T07:43:16;2.10;99.90
37222;DHT22;23119;51.842;-2.230;2022-12-07T07:45:42;2.10;99.90
37222;DHT22;23119;51.842;-2.230;2022-12-07T07:48:12;2.10;99.90
37222;DHT22;23119;51.842;-2.230;2022-12-07T07:50:43;2.10;99.90
37222;DHT22;23119;51.842;-2.230;2022-12-07T07:53:09;2.10;99.90
37222;DHT22;23119;51.842;-2.230;2022-12-07T07:55:35;2.20;99.90
37222;DHT22;23119;51.842;-2.230;2022-12-07T07:58:01;2.20;99.90
37222;DHT22;23119;51.842;-2.230;2022-12-07T08:00:26;2.20;99.90
37222;DHT22;23119;51.842;-2.230;2022-12-07T08:02:52;2.30;99.90
37222;DHT22;23119;51.842;-2.230;2022-12-07T08:05:18;2.30;99.90
37222;DHT22;23119;51.842;-2.230;2022-12-07T08:07:44;2.30;99.90
37222;DHT22;23119;51.842;-2.230;2022-12-07T08:10:11;2.30;99.90
37222;DHT22;23119;51.842;-2.230;2022-12-07T08:12:44;2.30;99.90
37222;DHT22;23119;51.842;-2.230;2022-12-07T08:15:30;2.30;99.90
37222;DHT22;23119;51.842;-2.230;2022-12-07T08:17:56;2.30;99.90
37222;DHT22;23119;51.842;-2.230;2022-12-07T08:20:22;2.20;99.90
37222;DHT22;23119;51.842;-2.230;2022-12-07T08:22:48;2.30;99.90
37222;DHT22;23119;51.842;-2.230;2022-12-07T08:25:16;2.20;99.90
37222;DHT22;23119;51.842;-2.230;2022-12-07T08:27:42;2.20;99.90
37222;DHT22;23119;51.842;-2.230;2022-12-07T08:30:13;2.20;99.90
37222;DHT22;23119;51.842;-2.230;2022-12-07T08:32:39;2.20;99.90
37222;DHT22;23119;51.842;-2.230;2022-12-07T08:35:05;2.20;99.90
37222;DHT22;23119;51.842;-2.230;2022-12-07T08:37:31;2.20;99.90
37222;DHT22;23119;51.842;-2.230;2022-12-07T08:39:57;2.20;99.90
37222;DHT22;23119;51.842;-2.230;2022-12-07T08:42:23;2.20;99.90
37222;DHT22;23119;51.842;-2.230;2022-12-07T08:44:56;2.20;99.90
37222;DHT22;23119;51.842;-2.230;2022-12-07T08:47:28;2.20;99.90
37222;DHT22;23119;51.842;-2.230;2022-12-07T08:49:53;2.30;99.90
37222;DHT22;23119;51.842;-2.230;2022-12-07T08:52:23;2.30;99.90
37222;DHT22;23119;51.842;-2.230;2022-12-07T08:54:51;2.30;99.90
37222;DHT22;23119;51.842;-2.230;2022-12-07T08:57:19;2.40;99.90
37222;DHT22;23119;51.842;-2.230;2022-12-07T08:59:48;2.30;99.90
37222;DHT22;23119;51.842;-2.230;2022-12-07T09:02:16;2.40;99.90
37222;DHT22;23119;51.842;-2.230;2022-12-07T09:04:42;2.50;99.90
37222;DHT22;23119;51.842;-2.230;2022-12-07T09:07:07;2.50;99.90
37222;DHT22;23119;51.842;-2.230;2022-12-07T09:09:36;2.60;99.90
37222;DHT22;23119;51.842;-2.230;2022-12-07T09:12:02;2.60;99.90
37222;DHT22;23119;51.842;-2.230;2022-12-07T09:14:28;2.70;99.90
37222;DHT22;23119;51.842;-2.230;2022-12-07T09:16:54;2.70;99.90
37222;DHT22;23119;51.842;-2.230;2022-12-07T09:19:23;2.70;99.90
37222;DHT22;23119;51.842;-2.230;2022-12-07T09:21:53;2.80;99.90
37222;DHT22;23119;51.842;-2.230;2022-12-07T09:24:30;2.80;99.90
37222;DHT22;23119;51.842;-2.230;2022-12-07T09:26:59;2.90;99.90
37222;DHT22;23119;51.842;-2.230;2022-12-07T09:29:27;3.20;99.90
37222;DHT22;23119;51.842;-2.230;2022-12-07T09:31:55;3.90;99.90
37222;DHT22;23119;51.842;-2.230;2022-12-07T09:34:23;4.70;99.90
37222;DHT22;23119;51.842;-2.230;2022-12-07T09:36:56;5.50;99.90
37222;DHT22;23119;51.842;-2.230;2022-12-07T09:39:22;5.80;99.90
37222;DHT22;23119;51.842;-2.230;2022-12-07T09:41:48;6.30;99.90
37222;DHT22;23119;51.842;-2.230;2022-12-07T09:44:20;6.90;99.90
37222;DHT22;23119;51.842;-2.230;2022-12-07T09:46:47;7.70;99.90
37222;DHT22;23119;51.842;-2.230;2022-12-07T09:49:21;8.70;99.90
37222;DHT22;23119;51.842;-2.230;2022-12-07T09:52:26;9.70;99.90
37222;DHT22;23119;51.842;-2.230;2022-12-07T09:54:55;10.80;99.90
37222;DHT22;23119;51.842;-2.230;2022-12-07T09:57:31;11.30;99.90
37222;DHT22;23119;51.842;-2.230;2022-12-07T10:00:02;11.20;99.90
37222;DHT22;23119;51.842;-2.230;2022-12-07T10:02:37;10.60;99.90
37222;DHT22;23119;51.842;-2.230;2022-12-07T10:05:10;10.20;99.90
37222;DHT22;23119;51.842;-2.230;2022-12-07T10:07:40;10.00;99.90
37222;DHT22;23119;51.842;-2.230;2022-12-07T10:10:23;10.40;99.90
37222;DHT22;23119;51.842;-2.230;2022-12-07T10:13:00;10.90;99.90
37222;DHT22;23119;51.842;-2.230;2022-12-07T10:21:11;12.50;99.90
37222;DHT22;23119;51.842;-2.230;2022-12-07T10:23:42;12.70;99.90
37222;DHT22;23119;51.842;-2.230;2022-12-07T10:29:31;12.50;99.90
37222;DHT22;23119;51.842;-2.230;2022-12-07T10:34:49;11.50;99.90
37222;DHT22;23119;51.842;-2.230;2022-12-07T10:37:17;11.10;99.90
37222;DHT22;23119;51.842;-2.230;2022-12-07T10:42:28;10.40;99.90
37222;DHT22;23119;51.842;-2.230;2022-12-07T10:45:13;10.30;99.90
37222;DHT22;23119;51.842;-2.230;2022-12-07T10:47:51;10.10;99.90
37222;DHT22;23119;51.842;-2.230;2022-12-07T10:53:41;9.20;99.90
37222;DHT22;23119;51.842;-2.230;2022-12-07T11:08:11;7.00;99.90
37222;DHT22;23119;51.842;-2.230;2022-12-07T11:13:35;6.50;99.90
37222;DHT22;23119;51.842;-2.230;2022-12-07T11:19:06;6.20;99.90
37222;DHT22;23119;51.842;-2.230;2022-12-07T11:24:31;6.00;99.90
37222;DHT22;23119;51.842;-2.230;2022-12-07T11:29:53;5.80;99.90
37222;DHT22;23119;51.842;-2.230;2022-12-07T11:38:01;5.50;99.90
37222;DHT22;23119;51.842;-2.230;2022-12-07T11:40:36;5.30;99.90
37222;DHT22;23119;51.842;-2.230;2022-12-07T11:43:26;5.20;99.90
37222;DHT22;23119;51.842;-2.230;2022-12-07T11:46:06;5.00;99.90
37222;DHT22;23119;51.842;-2.230;2022-12-07T11:49:19;4.90;99.90
37222;DHT22;23119;51.842;-2.230;2022-12-07T11:51:25;4.80;99.90
37222;DHT22;23119;51.842;-2.230;2022-12-07T11:53:55;4.80;99.90
37222;DHT22;23119;51.842;-2.230;2022-12-07T11:56:27;4.80;99.90
37222;DHT22;23119;51.842;-2.230;2022-12-07T11:59:13;4.70;99.90
37222;DHT22;23119;51.842;-2.230;2022-12-07T12:01:53;4.60;99.90
37222;DHT22;23119;51.842;-2.230;2022-12-07T12:07:00;4.50;99.90
37222;DHT22;23119;51.842;-2.230;2022-12-07T12:09:47;4.60;99.90
37222;DHT22;23119;51.842;-2.230;2022-12-07T12:12:38;4.60;99.90
37222;DHT22;23119;51.842;-2.230;2022-12-07T12:18:06;4.70;99.90
37222;DHT22;23119;51.842;-2.230;2022-12-07T12:20:45;4.70;99.90
37222;DHT22;23119;51.842;-2.230;2022-12-07T12:25:48;4.80;99.90
37222;DHT22;23119;51.842;-2.230;2022-12-07T12:28:27;4.90;99.90
37222;DHT22;23119;51.842;-2.230;2022-12-07T12:31:12;4.90;99.90
37222;DHT22;23119;51.842;-2.230;2022-12-07T12:33:49;5.00;99.90
37222;DHT22;23119;51.842;-2.230;2022-12-07T12:50:38;5.10;99.90
37222;DHT22;23119;51.842;-2.230;2022-12-07T12:56:13;5.00;99.90
37222;DHT22;23119;51.842;-2.230;2022-12-07T12:58:41;5.00;99.90
37222;DHT22;23119;51.842;-2.230;2022-12-07T13:04:03;5.00;99.90
37222;DHT22;23119;51.842;-2.230;2022-12-07T13:06:37;5.10;99.90
37222;DHT22;23119;51.842;-2.230;2022-12-07T13:09:03;5.10;99.90
37222;DHT22;23119;51.842;-2.230;2022-12-07T13:17:02;5.20;99.90
37222;DHT22;23119;51.842;-2.230;2022-12-07T13:27:34;5.20;99.90
37222;DHT22;23119;51.842;-2.230;2022-12-07T13:30:20;5.20;99.90
37222;DHT22;23119;51.842;-2.230;2022-12-07T13:32:54;5.20;99.90
37222;DHT22;23119;51.842;-2.230;2022-12-07T13:35:32;5.10;99.90
37222;DHT22;23119;51.842;-2.230;2022-12-07T13:37:59;5.10;99.90
37222;DHT22;23119;51.842;-2.230;2022-12-07T13:40:29;5.10;99.90
37222;DHT22;23119;51.842;-2.230;2022-12-07T13:43:12;5.10;99.90
37222;DHT22;23119;51.842;-2.230;2022-12-07T13:45:44;5.00;99.90
37222;DHT22;23119;51.842;-2.230;2022-12-07T13:48:42;5.00;99.90
37222;DHT22;23119;51.842;-2.230;2022-12-07T13:51:17;5.00;99.90
37222;DHT22;23119;51.842;-2.230;2022-12-07T13:53:54;4.90;99.90
37222;DHT22;23119;51.842;-2.230;2022-12-07T13:56:22;4.80;99.90
37222;DHT22;23119;51.842;-2.230;2022-12-07T13:58:50;4.80;99.90
37222;DHT22;23119;51.842;-2.230;2022-12-07T14:01:19;4.80;99.90
37222;DHT22;23119;51.842;-2.230;2022-12-07T14:03:48;4.70;99.90
37222;DHT22;23119;51.842;-2.230;2022-12-07T14:06:23;4.80;99.90
37222;DHT22;23119;51.842;-2.230;2022-12-07T14:09:16;4.80;99.90
37222;DHT22;23119;51.842;-2.230;2022-12-07T14:11:44;4.80;99.90
37222;DHT22;23119;51.842;-2.230;2022-12-07T14:14:21;4.70;99.90
37222;DHT22;23119;51.842;-2.230;2022-12-07T14:22:35;4.70;99.90
37222;DHT22;23119;51.842;-2.230;2022-12-07T14:27:33;4.50;99.90
37222;DHT22;23119;51.842;-2.230;2022-12-07T14:30:05;4.50;99.90
37222;DHT22;23119;51.842;-2.230;2022-12-07T14:32:36;4.50;99.90
37222;DHT22;23119;51.842;-2.230;2022-12-07T14:35:13;4.50;99.90
37222;DHT22;23119;51.842;-2.230;2022-12-07T14:37:41;4.40;99.90
37222;DHT22;23119;51.842;-2.230;2022-12-07T14:40:13;4.40;99.90
37222;DHT22;23119;51.842;-2.230;2022-12-07T14:42:43;4.30;99.90
37222;DHT22;23119;51.842;-2.230;2022-12-07T14:45:18;4.30;99.90
37222;DHT22;23119;51.842;-2.230;2022-12-07T14:47:49;4.20;99.90
37222;DHT22;23119;51.842;-2.230;2022-12-07T14:50:20;4.30;99.90
37222;DHT22;23119;51.842;-2.230;2022-12-07T14:53:01;4.20;99.90
37222;DHT22;23119;51.842;-2.230;2022-12-07T14:55:31;4.20;99.90
37222;DHT22;23119;51.842;-2.230;2022-12-07T14:57:59;4.20;99.90
37222;DHT22;23119;51.842;-2.230;2022-12-07T15:00:27;4.20;99.90
37222;DHT22;23119;51.842;-2.230;2022-12-07T15:02:56;4.20;99.90
37222;DHT22;23119;51.842;-2.230;2022-12-07T15:05:23;4.20;99.90
37222;DHT22;23119;51.842;-2.230;2022-12-07T15:07:51;4.20;99.90
37222;DHT22;23119;51.842;-2.230;2022-12-07T15:10:27;4.20;99.90
37222;DHT22;23119;51.842;-2.230;2022-12-07T15:13:02;4.10;99.90
37222;DHT22;23119;51.842;-2.230;2022-12-07T15:15:47;4.10;99.90
37222;DHT22;23119;51.842;-2.230;2022-12-07T15:18:13;4.10;99.90
37222;DHT22;23119;51.842;-2.230;2022-12-07T15:20:39;4.10;99.90
37222;DHT22;23119;51.842;-2.230;2022-12-07T15:23:05;4.10;99.90
37222;DHT22;23119;51.842;-2.230;2022-12-07T15:25:34;4.00;99.90
37222;DHT22;23119;51.842;-2.230;2022-12-07T15:27:59;4.00;99.90
37222;DHT22;23119;51.842;-2.230;2022-12-07T15:30:25;3.90;99.90
37222;DHT22;23119;51.842;-2.230;2022-12-07T15:32:52;3.80;99.90
37222;DHT22;23119;51.842;-2.230;2022-12-07T15:35:21;3.80;99.90
37222;DHT22;23119;51.842;-2.230;2022-12-07T15:37:46;3.70;99.90
37222;DHT22;23119;51.842;-2.230;2022-12-07T15:40:15;3.70;99.90
37222;DHT22;23119;51.842;-2.230;2022-12-07T15:42:55;3.60;99.90
37222;DHT22;23119;51.842;-2.230;2022-12-07T15:45:21;3.50;99.90
37222;DHT22;23119;51.842;-2.230;2022-12-07T15:47:46;3.50;99.90
37222;DHT22;23119;51.842;-2.230;2022-12-07T15:50:14;3.40;99.90
37222;DHT22;23119;51.842;-2.230;2022-12-07T15:52:40;3.40;99.90
37222;DHT22;23119;51.842;-2.230;2022-12-07T15:55:07;3.30;99.90
37222;DHT22;23119;51.842;-2.230;2022-12-07T15:57:35;3.30;99.90
37222;DHT22;23119;51.842;-2.230;2022-12-07T16:00:08;3.20;99.90
37222;DHT22;23119;51.842;-2.230;2022-12-07T16:02:37;3.20;99.90
37222;DHT22;23119;51.842;-2.230;2022-12-07T16:05:06;3.10;99.90
37222;DHT22;23119;51.842;-2.230;2022-12-07T16:07:40;3.10;99.90
37222;DHT22;23119;51.842;-2.230;2022-12-07T16:10:06;3.00;99.90
37222;DHT22;23119;51.842;-2.230;2022-12-07T16:12:37;3.00;99.90
37222;DHT22;23119;51.842;-2.230;2022-12-07T16:15:04;3.00;99.90
37222;DHT22;23119;51.842;-2.230;2022-12-07T16:17:30;3.00;99.90
37222;DHT22;23119;51.842;-2.230;2022-12-07T16:19:58;2.90;99.90
37222;DHT22;23119;51.842;-2.230;2022-12-07T16:22:26;2.90;99.90
37222;DHT22;23119;51.842;-2.230;2022-12-07T16:24:51;2.90;99.90
37222;DHT22;23119;51.842;-2.230;2022-12-07T16:27:17;2.80;99.90
37222;DHT22;23119;51.842;-2.230;2022-12-07T16:29:53;2.80;99.90
37222;DHT22;23119;51.842;-2.230;2022-12-07T16:32:18;2.80;99.90
37222;DHT22;23119;51.842;-2.230;2022-12-07T16:34:44;2.80;99.90
37222;DHT22;23119;51.842;-2.230;2022-12-07T16:37:14;2.70;99.90
37222;DHT22;23119;51.842;-2.230;2022-12-07T16:39:40;2.70;99.90
37222;DHT22;23119;51.842;-2.230;2022-12-07T16:42:08;2.70;99.90
37222;DHT22;23119;51.842;-2.230;2022-12-07T16:44:36;2.70;99.90
37222;DHT22;23119;51.842;-2.230;2022-12-07T16:47:04;2.70;99.90
37222;DHT22;23119;51.842;-2.230;2022-12-07T16:49:30;2.60;99.90
37222;DHT22;23119;51.842;-2.230;2022-12-07T16:51:58;2.60;99.90
37222;DHT22;23119;51.842;-2.230;2022-12-07T16:54:23;2.60;99.90
37222;DHT22;23119;51.842;-2.230;2022-12-07T16:56:49;2.60;99.90
37222;DHT22;23119;51.842;-2.230;2022-12-07T16:59:17;2.50;99.90
37222;DHT22;23119;51.842;-2.230;2022-12-07T17:01:45;2.50;99.90
37222;DHT22;23119;51.842;-2.230;2022-12-07T17:04:11;2.50;99.90
37222;DHT22;23119;51.842;-2.230;2022-12-07T17:06:39;2.40;99.90
37222;DHT22;23119;51.842;-2.230;2022-12-07T17:09:07;2.30;99.90
37222;DHT22;23119;51.842;-2.230;2022-12-07T17:11:37;2.30;99.90
37222;DHT22;23119;51.842;-2.230;2022-12-07T17:14:07;2.30;99.90
37222;DHT22;23119;51.842;-2.230;2022-12-07T17:16:52;2.30;99.90
37222;DHT22;23119;51.842;-2.230;2022-12-07T17:19:17;2.30;99.90
37222;DHT22;23119;51.842;-2.230;2022-12-07T17:21:43;2.30;99.90
37222;DHT22;23119;51.842;-2.230;2022-12-07T17:24:15;2.30;99.90
37222;DHT22;23119;51.842;-2.230;2022-12-07T17:26:41;2.30;99.90
37222;DHT22;23119;51.842;-2.230;2022-12-07T17:29:11;2.30;99.90
37222;DHT22;23119;51.842;-2.230;2022-12-07T17:31:42;2.30;99.90
37222;DHT22;23119;51.842;-2.230;2022-12-07T17:34:12;2.30;99.90
37222;DHT22;23119;51.842;-2.230;2022-12-07T17:36:39;2.30;99.90
37222;DHT22;23119;51.842;-2.230;2022-12-07T17:39:12;2.30;99.90
37222;DHT22;23119;51.842;-2.230;2022-12-07T17:41:39;2.30;99.90
37222;DHT22;23119;51.842;-2.230;2022-12-07T17:44:27;2.40;99.90
37222;DHT22;23119;51.842;-2.230;2022-12-07T17:47:00;2.30;99.90
37222;DHT22;23119;51.842;-2.230;2022-12-07T17:49:28;2.30;99.90
37222;DHT22;23119;51.842;-2.230;2022-12-07T17:51:58;2.30;99.90
37222;DHT22;23119;51.842;-2.230;2022-12-07T17:54:43;2.30;99.90
37222;DHT22;23119;51.842;-2.230;2022-12-07T17:57:33;2.30;99.90
37222;DHT22;23119;51.842;-2.230;2022-12-07T17:59:57;2.30;99.90
37222;DHT22;23119;51.842;-2.230;2022-12-07T18:02:25;2.30;99.90
37222;DHT22;23119;51.842;-2.230;2022-12-07T18:04:53;2.30;99.90
37222;DHT22;23119;51.842;-2.230;2022-12-07T18:07:19;2.30;99.90